createdAt,value
2019-05-17T00:02:22.567Z,8.80
2019-05-17T00:04:52.123Z,8.80
2019-05-17T00:07:22.505Z,8.80
2019-05-17T00:09:52.300Z,8.80
2019-05-17T00:12:23.746Z,8.80
2019-05-17T00:14:53.396Z,8.80
2019-05-17T00:17:23.314Z,8.80
2019-05-17T00:19:53.076Z,8.80
2019-05-17T00:22:22.996Z,8.80
2019-05-17T00:24:52.669Z,8.70
2019-05-17T00:27:23.295Z,8.80
2019-05-17T00:29:53.128Z,8.80
2019-05-17T00:32:23.013Z,8.70
2019-05-17T00:34:52.679Z,8.80
2019-05-17T00:37:23.528Z,8.80
2019-05-17T00:39:53.921Z,8.80
2019-05-17T00:42:26.437Z,8.80
2019-05-17T00:44:57.288Z,8.80
2019-05-17T00:47:27.388Z,8.80
2019-05-17T00:49:57.225Z,8.80
2019-05-17T00:52:27.324Z,8.90
2019-05-17T00:54:57.058Z,8.70
2019-05-17T00:57:27.475Z,8.80
2019-05-17T00:59:57.494Z,8.80
2019-05-17T01:02:27.567Z,8.80
2019-05-17T01:05:00.405Z,8.80
2019-05-17T01:07:30.107Z,8.80
2019-05-17T01:09:59.811Z,8.90
2019-05-17T01:12:29.998Z,8.80
2019-05-17T01:14:59.803Z,8.80
2019-05-17T01:17:29.846Z,8.80
2019-05-17T01:19:59.620Z,8.80
2019-05-17T01:22:29.219Z,8.90
2019-05-17T01:24:59.158Z,8.90
2019-05-17T01:27:28.844Z,8.80
2019-05-17T01:29:58.818Z,8.80
2019-05-17T01:32:28.614Z,8.80
2019-05-17T01:34:58.264Z,8.80
2019-05-17T01:37:28.402Z,8.80
2019-05-17T01:39:59.742Z,8.70
2019-05-17T01:42:29.511Z,8.70
2019-05-17T01:44:59.558Z,8.80
2019-05-17T01:47:29.282Z,8.90
2019-05-17T01:49:59.062Z,8.80
2019-05-17T01:52:28.610Z,8.80
2019-05-17T01:54:58.422Z,8.80
2019-05-17T01:57:29.877Z,8.70
2019-05-17T02:00:00.034Z,8.70
2019-05-17T02:02:40.073Z,8.80
2019-05-17T02:05:11.860Z,8.80
2019-05-17T02:07:41.515Z,8.80
2019-05-17T02:10:11.817Z,8.80
2019-05-17T02:12:57.005Z,8.70
2019-05-17T02:15:28.288Z,8.70
2019-05-17T02:17:57.942Z,8.80
2019-05-17T02:20:28.117Z,8.80
2019-05-17T02:22:58.295Z,8.80
2019-05-17T02:25:28.659Z,8.80
2019-05-17T02:27:58.690Z,8.80
2019-05-17T02:30:28.394Z,8.80
2019-05-17T02:33:03.395Z,8.70
2019-05-17T02:35:33.633Z,8.70
2019-05-17T02:38:03.102Z,8.70
2019-05-17T02:40:34.615Z,8.70
2019-05-17T02:43:04.418Z,8.80
2019-05-17T02:45:34.087Z,8.80
2019-05-17T02:48:04.370Z,8.70
2019-05-17T02:50:34.296Z,8.70
2019-05-17T02:53:05.612Z,8.70
2019-05-17T02:55:36.927Z,8.70
2019-05-17T02:58:06.607Z,8.80
2019-05-17T03:00:36.665Z,8.70
2019-05-17T03:03:06.412Z,8.70
2019-05-17T03:05:37.496Z,8.70
2019-05-17T03:08:07.195Z,8.70
2019-05-17T03:10:38.017Z,8.70
2019-05-17T03:13:08.269Z,8.70
2019-05-17T03:15:38.978Z,8.70
2019-05-17T03:18:08.691Z,8.70
2019-05-17T03:20:38.873Z,8.70
2019-05-17T03:23:12.436Z,8.60
2019-05-17T03:25:44.092Z,8.70
2019-05-17T03:28:13.613Z,8.60
2019-05-17T03:30:46.797Z,8.60
2019-05-17T03:33:16.639Z,8.60
2019-05-17T03:35:47.384Z,8.60
2019-05-17T03:38:17.080Z,8.60
2019-05-17T03:41:06.691Z,8.70
2019-05-17T03:43:18.460Z,8.60
2019-05-17T03:45:48.477Z,8.60
2019-05-17T03:48:18.337Z,8.60
2019-05-17T03:50:48.107Z,8.60
2019-05-17T03:53:18.012Z,8.70
2019-05-17T03:55:48.350Z,8.70
2019-05-17T03:58:23.416Z,8.60
2019-05-17T04:00:53.457Z,8.70
2019-05-17T04:03:23.589Z,8.60
2019-05-17T04:05:54.067Z,8.60
2019-05-17T04:08:23.897Z,8.70
2019-05-17T04:10:53.588Z,8.70
2019-05-17T04:13:23.723Z,8.70
2019-05-17T04:15:53.665Z,8.70
2019-05-17T04:18:23.775Z,8.70
2019-05-17T04:20:53.856Z,8.70
2019-05-17T04:23:23.587Z,8.80
2019-05-17T04:25:53.493Z,8.70
2019-05-17T04:28:23.405Z,8.80
2019-05-17T04:30:53.196Z,8.80
2019-05-17T04:33:23.613Z,8.80
2019-05-17T04:35:54.206Z,8.90
2019-05-17T04:38:24.237Z,8.90
2019-05-17T04:40:54.182Z,8.90
2019-05-17T04:43:23.985Z,9.00
2019-05-17T04:45:53.951Z,8.90
2019-05-17T04:48:23.626Z,9.00
2019-05-17T04:50:53.911Z,9.00
2019-05-17T04:53:23.820Z,9.00
2019-05-17T04:55:54.214Z,9.00
2019-05-17T04:58:24.238Z,8.90
2019-05-17T05:00:54.094Z,9.00
2019-05-17T05:03:23.651Z,9.00
2019-05-17T05:05:53.840Z,9.10
2019-05-17T05:08:23.619Z,9.10
2019-05-17T05:10:55.888Z,9.20
2019-05-17T05:13:25.519Z,9.30
2019-05-17T05:15:55.393Z,9.30
2019-05-17T05:18:25.657Z,9.40
2019-05-17T05:20:55.466Z,9.40
2019-05-17T05:23:25.092Z,9.40
2019-05-17T05:25:54.963Z,9.40
2019-05-17T05:28:25.454Z,9.40
2019-05-17T05:30:55.351Z,9.40
2019-05-17T05:33:24.926Z,9.40
2019-05-17T05:35:54.810Z,9.20
2019-05-17T05:38:24.441Z,9.30
2019-05-17T05:40:54.267Z,9.20
2019-05-17T05:43:23.935Z,9.20
2019-05-17T05:45:53.895Z,9.20
2019-05-17T05:48:23.912Z,9.20
2019-05-17T05:50:53.626Z,9.10
2019-05-17T05:53:23.861Z,9.20
2019-05-17T05:55:53.664Z,9.10
2019-05-17T05:58:24.948Z,9.20
2019-05-17T06:00:54.710Z,9.20
2019-05-17T06:03:24.396Z,9.20
2019-05-17T06:05:56.140Z,9.30
2019-05-17T06:08:27.325Z,9.30
2019-05-17T06:10:57.136Z,9.40
2019-05-17T06:13:26.873Z,9.50
2019-05-17T06:15:56.574Z,9.70
2019-05-17T06:18:28.131Z,9.80
2019-05-17T06:20:57.752Z,9.80
2019-05-17T06:23:27.443Z,9.90
2019-05-17T06:25:57.245Z,9.80
2019-05-17T06:28:27.406Z,9.80
2019-05-17T06:30:57.202Z,10.00
2019-05-17T06:33:30.893Z,10.00
2019-05-17T06:35:58.787Z,10.20
2019-05-17T06:38:29.043Z,10.10
2019-05-17T06:40:58.892Z,10.00
2019-05-17T06:43:28.465Z,10.00
2019-05-17T06:45:58.349Z,9.90
2019-05-17T06:48:27.898Z,10.10
2019-05-17T06:50:57.760Z,10.00
2019-05-17T06:53:27.629Z,9.90
2019-05-17T06:55:58.683Z,10.00
2019-05-17T06:58:28.848Z,9.90
2019-05-17T07:00:59.982Z,10.10
2019-05-17T07:03:29.823Z,10.30
2019-05-17T07:06:10.956Z,10.50
2019-05-17T07:08:41.003Z,10.90
2019-05-17T07:11:12.361Z,11.10
2019-05-17T07:13:42.097Z,10.80
2019-05-17T07:16:11.846Z,10.70
2019-05-17T07:18:41.678Z,11.00
2019-05-17T07:21:11.445Z,10.60
2019-05-17T07:23:41.564Z,10.70
2019-05-17T07:26:11.975Z,10.80
2019-05-17T07:28:41.974Z,10.60
2019-05-17T07:31:12.071Z,10.80
2019-05-17T07:33:42.647Z,10.80
2019-05-17T07:36:12.500Z,10.90
2019-05-17T07:38:42.220Z,11.30
2019-05-17T07:41:12.487Z,11.10
2019-05-17T07:43:43.701Z,11.10
2019-05-17T07:46:13.930Z,11.30
2019-05-17T07:48:43.627Z,11.30
2019-05-17T07:51:13.754Z,11.40
2019-05-17T07:53:43.537Z,11.30
2019-05-17T07:56:16.132Z,11.30
2019-05-17T07:58:45.757Z,11.20
2019-05-17T08:01:15.468Z,11.10
2019-05-17T08:03:45.221Z,11.10
2019-05-17T08:06:14.992Z,11.10
2019-05-17T08:08:44.995Z,10.80
2019-05-17T08:11:14.737Z,10.80
2019-05-17T08:13:44.357Z,10.80
2019-05-17T08:16:14.162Z,10.80
2019-05-17T08:18:45.415Z,10.80
2019-05-17T08:21:27.736Z,10.90
2019-05-17T08:24:00.139Z,11.00
2019-05-17T08:26:31.688Z,10.90
2019-05-17T08:29:03.748Z,11.00
2019-05-17T08:31:34.863Z,11.20
2019-05-17T08:34:06.053Z,11.00
2019-05-17T08:36:35.682Z,11.10
2019-05-17T08:39:06.834Z,11.20
2019-05-17T08:41:36.576Z,11.40
2019-05-17T08:44:06.245Z,11.30
2019-05-17T08:46:35.951Z,11.30
2019-05-17T08:49:09.735Z,11.40
2019-05-17T08:51:42.192Z,11.50
2019-05-17T08:54:12.535Z,11.40
2019-05-17T08:56:42.926Z,11.30
2019-05-17T08:59:15.267Z,11.20
2019-05-17T09:01:45.507Z,11.30
2019-05-17T09:04:16.823Z,11.30
2019-05-17T09:06:46.470Z,11.20
2019-05-17T09:09:16.811Z,11.20
2019-05-17T09:11:47.232Z,11.20
2019-05-17T09:14:17.522Z,11.30
2019-05-17T09:16:50.456Z,11.40
2019-05-17T09:19:20.692Z,11.30
2019-05-17T09:21:51.932Z,11.40
2019-05-17T09:24:21.790Z,11.40
2019-05-17T09:26:53.201Z,11.50
2019-05-17T09:29:23.532Z,11.50
2019-05-17T09:31:53.616Z,11.50
2019-05-17T09:34:24.946Z,11.50
2019-05-17T09:36:55.172Z,11.80
2019-05-17T09:39:26.460Z,11.60
2019-05-17T09:41:56.142Z,11.80
2019-05-17T09:44:25.900Z,12.20
2019-05-17T09:46:55.719Z,12.10
2019-05-17T09:49:25.708Z,12.20
2019-05-17T09:51:56.886Z,12.70
2019-05-17T09:54:41.128Z,12.90
2019-05-17T09:57:03.054Z,12.90
2019-05-17T09:59:33.606Z,13.20
2019-05-17T10:02:03.537Z,13.40
2019-05-17T10:04:34.594Z,12.80
2019-05-17T10:07:05.081Z,12.80
2019-05-17T10:09:34.909Z,12.70
2019-05-17T10:12:06.203Z,12.30
2019-05-17T10:14:35.873Z,12.20
2019-05-17T10:17:06.407Z,12.10
2019-05-17T10:19:36.160Z,12.30
2019-05-17T10:22:05.988Z,12.20
2019-05-17T10:24:38.805Z,12.30
2019-05-17T10:27:07.401Z,12.50
2019-05-17T10:29:39.356Z,12.70
2019-05-17T10:32:10.590Z,12.60
2019-05-17T10:34:40.876Z,12.50
2019-05-17T10:37:20.296Z,12.40
2019-05-17T10:39:51.381Z,12.50
2019-05-17T10:42:21.634Z,12.50
2019-05-17T10:44:54.520Z,12.70
2019-05-17T10:47:22.930Z,12.80
2019-05-17T10:49:54.111Z,12.90
2019-05-17T10:52:23.945Z,13.10
2019-05-17T10:54:53.599Z,13.20
2019-05-17T10:57:24.983Z,13.30
2019-05-17T10:59:55.043Z,13.10
2019-05-17T11:02:30.183Z,13.10
2019-05-17T11:05:00.638Z,13.10
2019-05-17T11:07:32.361Z,13.20
2019-05-17T11:10:02.676Z,13.30
2019-05-17T11:12:37.368Z,13.10
2019-05-17T11:15:11.509Z,13.30
2019-05-17T11:17:40.936Z,13.50
2019-05-17T11:20:11.874Z,13.70
2019-05-17T11:22:43.289Z,13.50
2019-05-17T11:25:14.914Z,13.60
2019-05-17T11:27:44.642Z,13.80
2019-05-17T11:30:15.073Z,14.10
2019-05-17T11:32:46.003Z,14.20
2019-05-17T11:35:15.776Z,14.30
2019-05-17T11:37:46.955Z,14.20
2019-05-17T11:40:18.326Z,14.40
2019-05-17T11:42:48.105Z,13.90
2019-05-17T11:45:27.284Z,13.80
2019-05-17T11:47:50.308Z,13.80
2019-05-17T11:50:20.988Z,14.10
2019-05-17T11:52:53.436Z,14.00
2019-05-17T11:55:23.505Z,13.90
2019-05-17T11:57:53.931Z,14.30
2019-05-17T12:00:26.522Z,13.80
2019-05-17T12:02:56.198Z,13.90
2019-05-17T12:05:27.493Z,13.80
2019-05-17T12:07:59.059Z,13.90
2019-05-17T12:10:29.182Z,14.00
2019-05-17T12:12:58.905Z,13.90
2019-05-17T12:15:43.604Z,13.90
2019-05-17T12:18:01.866Z,14.00
2019-05-17T12:20:33.027Z,14.00
2019-05-17T12:23:03.563Z,14.00
2019-05-17T12:25:34.001Z,13.90
2019-05-17T12:28:05.125Z,13.80
2019-05-17T12:30:34.859Z,14.00
2019-05-17T12:33:04.627Z,14.30
2019-05-17T12:35:36.228Z,14.40
2019-05-17T12:38:05.903Z,14.40
2019-05-17T12:40:35.704Z,14.30
2019-05-17T12:43:05.729Z,14.30
2019-05-17T12:45:36.317Z,14.70
2019-05-17T12:48:07.479Z,15.20
2019-05-17T12:50:37.519Z,15.00
2019-05-17T12:53:07.216Z,15.20
2019-05-17T12:55:37.030Z,15.20
2019-05-17T12:58:07.345Z,15.00
2019-05-17T13:00:37.784Z,14.60
2019-05-17T13:03:07.659Z,15.10
2019-05-17T13:05:38.046Z,14.60
2019-05-17T13:08:09.389Z,15.20
2019-05-17T13:10:41.289Z,15.40
2019-05-17T13:13:11.018Z,15.60
2019-05-17T13:15:42.404Z,16.00
2019-05-17T13:18:13.371Z,15.80
2019-05-17T13:20:49.378Z,14.80
2019-05-17T13:23:20.536Z,15.20
2019-05-17T13:25:50.347Z,15.20
2019-05-17T13:28:21.886Z,15.40
2019-05-17T13:30:53.164Z,15.40
2019-05-17T13:33:23.495Z,15.10
2019-05-17T13:35:53.155Z,15.00
2019-05-17T13:38:23.564Z,15.30
2019-05-17T13:40:53.292Z,14.80
2019-05-17T13:43:23.382Z,14.60
2019-05-17T13:45:53.328Z,14.60
2019-05-17T13:48:23.183Z,14.60
2019-05-17T13:50:53.874Z,14.60
2019-05-17T13:53:24.568Z,14.80
2019-05-17T13:55:54.669Z,14.70
2019-05-17T13:58:24.786Z,14.80
2019-05-17T14:00:54.781Z,14.80
2019-05-17T14:03:24.791Z,14.60
2019-05-17T14:05:54.935Z,14.60
2019-05-17T14:08:24.803Z,14.70
2019-05-17T14:10:55.269Z,14.80
2019-05-17T14:13:27.108Z,14.70
2019-05-17T14:15:57.113Z,14.70
2019-05-17T14:18:28.795Z,14.80
2019-05-17T14:20:59.171Z,14.90
2019-05-17T14:23:29.444Z,14.60
2019-05-17T14:25:59.583Z,14.90
2019-05-17T14:28:31.131Z,15.00
2019-05-17T14:31:01.079Z,14.70
2019-05-17T14:33:31.009Z,14.70
2019-05-17T14:36:03.842Z,14.70
2019-05-17T14:38:33.768Z,14.70
2019-05-17T14:41:08.168Z,15.00
2019-05-17T14:43:37.400Z,15.10
2019-05-17T14:46:07.148Z,15.40
2019-05-17T14:48:36.976Z,15.70
2019-05-17T14:51:06.653Z,15.80
2019-05-17T14:53:36.445Z,15.90
2019-05-17T14:56:07.185Z,16.00
2019-05-17T14:58:37.277Z,15.80
2019-05-17T15:01:08.014Z,15.40
2019-05-17T15:03:39.247Z,15.30
2019-05-17T15:06:08.958Z,15.60
2019-05-17T15:08:39.003Z,15.50
2019-05-17T15:11:09.309Z,15.60
2019-05-17T15:13:40.372Z,15.90
2019-05-17T15:16:11.562Z,15.80
2019-05-17T15:18:41.313Z,16.00
2019-05-17T15:21:10.933Z,15.70
2019-05-17T15:23:41.480Z,15.50
2019-05-17T15:26:11.394Z,15.60
2019-05-17T15:28:41.208Z,15.60
2019-05-17T15:31:10.931Z,15.60
2019-05-17T15:33:41.072Z,15.60
2019-05-17T15:36:11.003Z,15.60
2019-05-17T15:38:41.100Z,15.60
2019-05-17T15:41:10.749Z,15.60
2019-05-17T15:43:41.952Z,15.40
2019-05-17T15:46:12.692Z,15.50
2019-05-17T15:48:42.402Z,15.60
2019-05-17T15:51:19.306Z,15.60
2019-05-17T15:53:49.172Z,15.50
2019-05-17T15:56:18.946Z,15.80
2019-05-17T15:58:48.905Z,15.70
2019-05-17T16:01:18.909Z,15.70
2019-05-17T16:03:48.812Z,15.80
2019-05-17T16:06:18.493Z,15.70
2019-05-17T16:08:49.663Z,15.80
2019-05-17T16:11:20.373Z,15.90
2019-05-17T16:13:50.126Z,16.10
2019-05-17T16:16:22.652Z,16.20
2019-05-17T16:18:53.114Z,16.40
2019-05-17T16:21:23.110Z,16.60
2019-05-17T16:23:52.902Z,16.40
2019-05-17T16:26:22.553Z,16.40
2019-05-17T16:28:54.227Z,16.50
2019-05-17T16:31:23.873Z,16.40
2019-05-17T16:33:54.967Z,16.40
2019-05-17T16:36:24.660Z,15.90
2019-05-17T16:38:55.007Z,15.90
2019-05-17T16:41:25.085Z,15.70
2019-05-17T16:43:57.450Z,15.70
2019-05-17T16:46:27.992Z,15.70
2019-05-17T16:48:59.152Z,15.50
2019-05-17T16:51:29.005Z,15.60
2019-05-17T16:53:58.979Z,15.50
2019-05-17T16:56:30.319Z,15.30
2019-05-17T16:59:19.460Z,15.30
2019-05-17T17:01:49.172Z,15.20
2019-05-17T17:04:18.917Z,15.10
2019-05-17T17:06:48.610Z,15.00
2019-05-17T17:09:19.743Z,15.10
2019-05-17T17:11:49.482Z,14.90
2019-05-17T17:14:19.267Z,14.90
2019-05-17T17:16:48.980Z,14.90
2019-05-17T17:19:19.126Z,14.90
2019-05-17T17:21:49.763Z,14.90
2019-05-17T17:24:19.765Z,14.90
2019-05-17T17:26:50.994Z,14.90
2019-05-17T17:29:20.833Z,14.80
2019-05-17T17:31:50.651Z,14.80
2019-05-17T17:34:21.127Z,14.80
2019-05-17T17:36:50.815Z,14.80
2019-05-17T17:39:23.162Z,14.80
2019-05-17T17:41:54.778Z,14.80
2019-05-17T17:44:24.437Z,14.80
2019-05-17T17:47:17.911Z,14.80
2019-05-17T17:49:47.746Z,14.70
2019-05-17T17:52:17.436Z,14.60
2019-05-17T17:54:47.254Z,14.50
2019-05-17T17:57:17.814Z,14.50
2019-05-17T17:59:47.693Z,14.50
2019-05-17T18:02:17.921Z,14.50
2019-05-17T18:04:52.193Z,14.50
2019-05-17T18:07:21.975Z,14.50
2019-05-17T18:09:53.146Z,14.50
2019-05-17T18:12:22.920Z,14.50
2019-05-17T18:14:52.625Z,14.40
2019-05-17T18:17:23.123Z,14.40
2019-05-17T18:19:53.014Z,14.40
2019-05-17T18:22:23.205Z,14.30
2019-05-17T18:24:54.394Z,14.30
2019-05-17T18:27:24.273Z,14.30
2019-05-17T18:29:54.161Z,14.20
2019-05-17T18:32:26.063Z,14.20
2019-05-17T18:34:57.739Z,14.10
2019-05-17T18:37:29.028Z,14.10
2019-05-17T18:40:00.420Z,14.00
2019-05-17T18:42:49.481Z,13.90
2019-05-17T18:45:19.453Z,13.80
2019-05-17T18:47:50.716Z,13.70
2019-05-17T18:50:20.786Z,13.60
2019-05-17T18:52:51.521Z,13.60
2019-05-17T18:55:21.754Z,13.50
2019-05-17T18:57:53.949Z,13.50
2019-05-17T19:00:23.865Z,13.50
2019-05-17T19:02:53.767Z,13.40
2019-05-17T19:05:23.414Z,13.40
2019-05-17T19:07:53.623Z,13.30
2019-05-17T19:10:23.830Z,13.30
2019-05-17T19:12:53.677Z,13.20
2019-05-17T19:15:23.737Z,13.10
2019-05-17T19:17:53.658Z,13.00
2019-05-17T19:20:23.816Z,13.00
2019-05-17T19:22:53.707Z,12.90
2019-05-17T19:25:23.677Z,12.80
2019-05-17T19:27:54.117Z,12.70
2019-05-17T19:30:23.935Z,12.70
2019-05-17T19:32:53.577Z,12.60
2019-05-17T19:35:23.703Z,12.60
2019-05-17T19:37:53.509Z,12.50
2019-05-17T19:40:23.296Z,12.50
2019-05-17T19:42:53.316Z,12.50
2019-05-17T19:45:23.377Z,12.40
2019-05-17T19:47:54.708Z,12.40
2019-05-17T19:50:28.171Z,12.40
2019-05-17T19:52:57.909Z,12.40
2019-05-17T19:55:28.317Z,12.30
2019-05-17T19:57:58.078Z,12.30
2019-05-17T20:00:28.220Z,12.40
2019-05-17T20:02:57.796Z,12.40
2019-05-17T20:05:29.026Z,12.40
2019-05-17T20:07:58.793Z,12.40
2019-05-17T20:10:28.588Z,12.50
2019-05-17T20:12:58.697Z,12.50
2019-05-17T20:15:34.383Z,12.50
2019-05-17T20:18:00.157Z,12.50
2019-05-17T20:20:29.991Z,12.50
2019-05-17T20:22:59.921Z,12.40
2019-05-17T20:25:29.702Z,12.50
2019-05-17T20:27:59.387Z,12.50
2019-05-17T20:30:29.207Z,12.50
2019-05-17T20:32:59.307Z,12.50
2019-05-17T20:35:29.098Z,12.50
2019-05-17T20:37:58.844Z,12.50
2019-05-17T20:40:30.034Z,12.50
2019-05-17T20:43:00.024Z,12.50
2019-05-17T20:45:33.150Z,12.50
2019-05-17T20:48:01.496Z,12.50
2019-05-17T20:50:33.315Z,12.50
2019-05-17T20:53:16.552Z,12.50
2019-05-17T20:55:34.631Z,12.50
2019-05-17T20:58:04.620Z,12.40
2019-05-17T21:00:34.360Z,12.40
2019-05-17T21:03:04.105Z,12.40
2019-05-17T21:05:33.795Z,12.40
2019-05-17T21:08:03.634Z,12.40
2019-05-17T21:10:33.853Z,12.40
2019-05-17T21:13:03.565Z,12.30
2019-05-17T21:15:46.763Z,12.40
2019-05-17T21:18:04.672Z,12.30
2019-05-17T21:20:34.451Z,12.30
2019-05-17T21:23:04.115Z,12.30
2019-05-17T21:25:33.852Z,12.40
2019-05-17T21:28:03.620Z,12.40
2019-05-17T21:30:32.376Z,12.40
2019-05-17T21:33:02.080Z,12.40
2019-05-17T21:35:32.788Z,12.40
2019-05-17T21:38:02.472Z,12.30
2019-05-17T21:40:32.156Z,12.30
2019-05-17T21:43:01.771Z,12.30
2019-05-17T21:45:31.616Z,12.30
2019-05-17T21:48:01.287Z,12.30
2019-05-17T21:50:31.099Z,12.30
2019-05-17T21:53:01.363Z,12.30
2019-05-17T21:55:30.910Z,12.30
2019-05-17T21:58:00.678Z,12.30
2019-05-17T22:01:02.106Z,12.20
2019-05-17T22:03:32.725Z,12.20
2019-05-17T22:06:02.472Z,12.20
2019-05-17T22:08:32.309Z,12.30
2019-05-17T22:11:03.178Z,12.20
2019-05-17T22:13:33.354Z,12.20
2019-05-17T22:16:17.119Z,12.20
2019-05-17T22:18:36.080Z,12.20
2019-05-17T22:21:06.165Z,12.20
2019-05-17T22:23:39.345Z,12.20
2019-05-17T22:26:09.283Z,12.20
2019-05-17T22:28:40.509Z,12.20
2019-05-17T22:31:10.239Z,12.20
2019-05-17T22:33:39.889Z,12.20
2019-05-17T22:36:09.677Z,12.20
2019-05-17T22:38:39.383Z,12.10
2019-05-17T22:41:10.534Z,12.10
2019-05-17T22:43:41.717Z,12.20
2019-05-17T22:46:12.407Z,12.30
2019-05-17T22:48:45.964Z,12.30
2019-05-17T22:51:16.259Z,12.20
2019-05-17T22:53:46.128Z,12.10
2019-05-17T22:56:16.564Z,12.10
2019-05-17T22:58:46.247Z,12.00
2019-05-17T23:01:16.001Z,12.00
2019-05-17T23:03:46.594Z,11.90
2019-05-17T23:06:16.916Z,11.90
2019-05-17T23:08:47.026Z,11.90
2019-05-17T23:11:16.694Z,11.80
2019-05-17T23:13:46.498Z,11.80
2019-05-17T23:16:16.689Z,11.80
2019-05-17T23:19:05.124Z,11.80
2019-05-17T23:21:35.324Z,11.80
2019-05-17T23:24:05.753Z,11.70
2019-05-17T23:26:35.490Z,11.70
2019-05-17T23:29:05.707Z,11.70
2019-05-17T23:31:35.513Z,11.60
2019-05-17T23:34:05.234Z,11.70
2019-05-17T23:36:35.210Z,11.60
2019-05-17T23:39:06.634Z,11.60
2019-05-17T23:41:36.345Z,11.50
2019-05-17T23:44:06.392Z,11.40
2019-05-17T23:46:36.142Z,11.40
2019-05-17T23:49:06.218Z,11.40
2019-05-17T23:51:35.942Z,11.40
2019-05-17T23:54:06.007Z,11.30
2019-05-17T23:56:35.936Z,11.30
2019-05-17T23:59:06.099Z,11.30
